Airfield :
LOGIN :

Register | Disclaimer

   EN    FR    IT 

 










Legend :    VFR   Marginal VFR   IFR   Intensive IFR   Very Intensive IFR
Visi :
Ceiling :
>= 8 km
>= 3000ft
5 to 8 km
1000 to 3000 ft
1500m to 5 km
500 to 1000 ft
800 to 1500m
200 to 500 ft
< 800m
< 200 ft
Symbols :   Thunderstorms  Fog  Heavy snow  Heavy precipitations  Wind > 20 kt
SIGMETs :     Misc.  Thunderstorms  Icing  Turbulence  Mountain Waves  Volcanic Ashes






- Airport Elevation : 935 ft


EBFS - Florennes

CURRENT METAR :
  • 230155Z AUTO VRB01KT 9999 FEW015/// SCT018/// BKN024/// 07/06 Q1025 WHT

EXPIRED METARs :
  • 230133Z AUTO 27003KT 9999 FEW015/// SCT020/// BKN042/// 07/06 Q1026 WHT
  • 230055Z AUTO 25004KT 9999 -RA FEW025/// BKN048/// 07/06 Q1025 BLU
  • 230025Z AUTO 27005KT 9999 FEW027/// OVC050/// 06/05 Q1025 BLU
  • 222355Z AUTO 27005KT 9999 BKN049/// 07/06 Q1025 BLU
  • 222325Z AUTO 26005KT 9999 SCT050/// 06/05 Q1025 BLU

TAF TAF EBFS
Valid from the 22 at 19:00 until the 23 at 07:00 UTC


221541Z 2219/2307 28010KT 9999 BKN040
TEMPO 2219/2221 28010G20KT 7000 -SHRA SCT020 BKN030
TEMPO 2300/2307 SCT010 BKN040



MET'MAP, your aeronautical weather chart ! - Copyright ORBIFLY December 2007 - Disclaimer

ORBIFLY MET'MAP TEAM :

Programming & Development : Alexandra Zaïnal
Concept & original design : Baudouin d'Aumeries
Assistance for programming : Marc-Olivier Méhu
Technical & hardware support : Manuel Goepfert

Contact : metmap@orbifly.com




SOURCES & CREDITS :

   NOAA